createdAt,value
2017-05-23T00:00:44.773Z,0
2017-05-23T00:01:54.720Z,0
2017-05-23T00:03:04.673Z,0
2017-05-23T00:04:14.629Z,0
2017-05-23T00:05:24.575Z,0
2017-05-23T00:06:34.893Z,0
2017-05-23T00:07:45.163Z,0
2017-05-23T00:08:55.424Z,0
2017-05-23T00:10:05.683Z,0
2017-05-23T00:11:15.953Z,0
2017-05-23T00:12:26.215Z,0
2017-05-23T00:13:36.473Z,0
2017-05-23T00:14:46.737Z,0
2017-05-23T00:15:56.996Z,0
2017-05-23T00:17:07.266Z,0
2017-05-23T00:18:17.530Z,0
2017-05-23T00:19:27.482Z,0
2017-05-23T00:20:37.751Z,0
2017-05-23T00:21:48.012Z,0
2017-05-23T00:22:57.959Z,0
2017-05-23T00:24:08.259Z,0
2017-05-23T00:25:18.522Z,0
2017-05-23T00:26:28.781Z,0
2017-05-23T00:27:39.039Z,0
2017-05-23T00:28:48.999Z,0
2017-05-23T00:29:59.260Z,0
2017-05-23T00:31:09.523Z,0
2017-05-23T00:32:19.785Z,0
2017-05-23T00:33:30.109Z,0
2017-05-23T00:34:40.055Z,0
2017-05-23T00:35:50.318Z,0
2017-05-23T00:37:00.259Z,0
2017-05-23T00:38:10.580Z,0
2017-05-23T00:39:20.541Z,0
2017-05-23T00:40:30.794Z,0
2017-05-23T00:41:41.048Z,0
2017-05-23T00:42:51.309Z,0
2017-05-23T00:44:01.264Z,0
2017-05-23T00:45:11.526Z,0
2017-05-23T00:46:21.784Z,0
2017-05-23T00:47:32.043Z,0
2017-05-23T00:48:42.308Z,0
2017-05-23T00:49:52.568Z,0
2017-05-23T00:51:02.829Z,0
2017-05-23T00:52:12.771Z,0
2017-05-23T00:53:22.723Z,0
2017-05-23T00:54:32.990Z,0
2017-05-23T00:55:43.249Z,0
2017-05-23T00:56:53.188Z,0
2017-05-23T00:58:03.452Z,0
2017-05-23T00:59:13.710Z,0
2017-05-23T01:00:23.336Z,0
2017-05-23T01:01:33.607Z,0
2017-05-23T01:02:43.875Z,0
2017-05-23T01:03:53.817Z,0
2017-05-23T01:05:03.767Z,0
2017-05-23T01:06:14.030Z,0
2017-05-23T01:07:23.982Z,0
2017-05-23T01:08:33.929Z,0
2017-05-23T01:09:44.197Z,0
2017-05-23T01:10:54.461Z,0
2017-05-23T01:12:04.729Z,0
2017-05-23T01:13:14.987Z,0
2017-05-23T01:14:25.249Z,0
2017-05-23T01:15:35.573Z,0
2017-05-23T01:16:45.830Z,0
2017-05-23T01:17:56.086Z,0
2017-05-23T01:19:06.351Z,0
2017-05-23T01:20:16.613Z,0
2017-05-23T01:21:26.872Z,0
2017-05-23T01:22:37.130Z,0
2017-05-23T01:23:47.394Z,0
2017-05-23T01:24:57.663Z,0
2017-05-23T01:26:07.917Z,0
2017-05-23T01:27:18.234Z,0
2017-05-23T01:28:28.497Z,0
2017-05-23T01:29:38.766Z,0
2017-05-23T01:30:48.710Z,0
2017-05-23T01:31:58.974Z,0
2017-05-23T01:33:09.236Z,0
2017-05-23T01:34:19.500Z,0
2017-05-23T01:35:29.760Z,0
2017-05-23T01:36:39.701Z,0
2017-05-23T01:37:49.968Z,0
2017-05-23T01:39:00.226Z,0
2017-05-23T01:40:10.498Z,0
2017-05-23T01:41:20.754Z,0
2017-05-23T01:42:31.016Z,0
2017-05-23T01:43:41.275Z,0
2017-05-23T01:44:51.537Z,0
2017-05-23T01:46:01.802Z,0
2017-05-23T01:47:12.062Z,0
2017-05-23T01:48:22.324Z,0
2017-05-23T01:49:32.273Z,0
2017-05-23T01:50:42.529Z,0
2017-05-23T01:51:52.786Z,0
2017-05-23T01:53:03.109Z,0
2017-05-23T01:54:13.070Z,0
2017-05-23T01:55:23.020Z,0
2017-05-23T01:56:33.296Z,0
2017-05-23T01:57:43.249Z,0
2017-05-23T01:58:53.506Z,0
2017-05-23T02:00:03.457Z,5
2017-05-23T02:01:13.719Z,5
2017-05-23T02:02:23.661Z,5
2017-05-23T02:03:33.922Z,5
2017-05-23T02:04:44.180Z,5
2017-05-23T02:05:54.435Z,5
2017-05-23T02:07:04.689Z,5
2017-05-23T02:08:14.635Z,5
2017-05-23T02:09:24.580Z,5
2017-05-23T02:10:34.523Z,5
2017-05-23T02:11:44.780Z,5
2017-05-23T02:12:57.083Z,10
2017-05-23T02:14:07.029Z,10
2017-05-23T02:15:17.288Z,10
2017-05-23T02:16:27.543Z,10
2017-05-23T02:17:37.803Z,10
2017-05-23T02:18:48.070Z,10
2017-05-23T02:19:58.023Z,10
2017-05-23T02:21:08.289Z,10
2017-05-23T02:22:18.547Z,15
2017-05-23T02:23:28.814Z,15
2017-05-23T02:24:38.760Z,15
2017-05-23T02:25:48.706Z,15
2017-05-23T02:26:58.961Z,20
2017-05-23T02:28:08.911Z,20
2017-05-23T02:29:19.172Z,20
2017-05-23T02:30:29.739Z,20
2017-05-23T02:31:39.998Z,25
2017-05-23T02:32:49.937Z,25
2017-05-23T02:34:00.198Z,25
2017-05-23T02:35:10.466Z,25
2017-05-23T02:36:20.801Z,30
2017-05-23T02:37:30.744Z,30
2017-05-23T02:38:41.000Z,30
2017-05-23T02:39:50.944Z,30
2017-05-23T02:41:01.204Z,30
2017-05-23T02:42:11.400Z,35
2017-05-23T02:43:21.668Z,35
2017-05-23T02:44:31.617Z,35
2017-05-23T02:45:41.870Z,35
2017-05-23T02:46:52.137Z,40
2017-05-23T02:48:04.402Z,40
2017-05-23T02:49:14.669Z,40
2017-05-23T02:50:24.926Z,40
2017-05-23T02:51:35.180Z,45
2017-05-23T02:52:45.433Z,45
2017-05-23T02:53:55.693Z,45
2017-05-23T02:55:05.647Z,45
2017-05-23T02:56:15.609Z,50
2017-05-23T02:57:25.869Z,50
2017-05-23T02:58:36.128Z,50
2017-05-23T02:59:45.760Z,50
2017-05-23T03:00:55.704Z,50
2017-05-23T03:02:05.966Z,50
2017-05-23T03:03:16.234Z,50
2017-05-23T03:04:26.502Z,50
2017-05-23T03:05:36.185Z,55
2017-05-23T03:06:46.130Z,55
2017-05-23T03:07:56.389Z,55
2017-05-23T03:09:06.651Z,60
2017-05-23T03:10:16.916Z,60
2017-05-23T03:11:26.563Z,60
2017-05-23T03:12:36.823Z,60
2017-05-23T03:13:46.768Z,65
2017-05-23T03:14:56.411Z,65
2017-05-23T03:16:06.682Z,65
2017-05-23T03:17:19.194Z,65
2017-05-23T03:18:29.143Z,70
2017-05-23T03:19:39.401Z,70
2017-05-23T03:20:49.651Z,70
2017-05-23T03:21:59.591Z,70
2017-05-23T03:23:09.855Z,75
2017-05-23T03:24:19.797Z,75
2017-05-23T03:25:30.056Z,75
2017-05-23T03:26:40.328Z,75
2017-05-23T03:27:50.589Z,80
2017-05-23T03:29:00.537Z,80
2017-05-23T03:30:10.544Z,80
2017-05-23T03:31:20.486Z,80
2017-05-23T03:32:30.126Z,85
2017-05-23T03:33:40.065Z,85
2017-05-23T03:34:50.013Z,85
2017-05-23T03:36:00.264Z,85
2017-05-23T03:37:10.210Z,90
2017-05-23T03:38:20.475Z,90
2017-05-23T03:39:30.737Z,90
2017-05-23T03:40:40.994Z,90
2017-05-23T03:41:51.293Z,90
2017-05-23T03:43:01.553Z,95
2017-05-23T03:44:11.497Z,95
2017-05-23T03:45:21.763Z,95
2017-05-23T03:46:32.021Z,95
2017-05-23T03:47:42.286Z,100
2017-05-23T03:48:52.549Z,100
2017-05-23T03:50:02.496Z,100
2017-05-23T03:51:12.752Z,100
2017-05-23T03:52:22.690Z,100
2017-05-23T03:53:32.636Z,105
2017-05-23T03:54:42.893Z,105
2017-05-23T03:55:53.154Z,105
2017-05-23T03:57:03.419Z,105
2017-05-23T03:58:13.362Z,105
2017-05-23T03:59:23.619Z,105
2017-05-23T04:00:33.881Z,105
2017-05-23T04:01:43.824Z,105
2017-05-23T04:02:53.773Z,105
2017-05-23T04:04:04.038Z,105
2017-05-23T04:05:14.292Z,110
2017-05-23T04:06:24.558Z,110
2017-05-23T04:07:34.824Z,110
2017-05-23T04:08:45.091Z,110
2017-05-23T04:09:55.347Z,110
2017-05-23T04:11:05.616Z,115
2017-05-23T04:12:15.559Z,115
2017-05-23T04:13:25.819Z,115
2017-05-23T04:14:36.155Z,115
2017-05-23T04:15:46.104Z,115
2017-05-23T04:16:56.047Z,115
2017-05-23T04:18:06.307Z,120
2017-05-23T04:19:16.257Z,125
2017-05-23T04:20:26.518Z,120
2017-05-23T04:21:36.773Z,120
2017-05-23T04:22:46.716Z,120
2017-05-23T04:23:56.660Z,120
2017-05-23T04:25:06.922Z,125
2017-05-23T04:26:16.866Z,125
2017-05-23T04:27:27.123Z,125
2017-05-23T04:28:37.382Z,125
2017-05-23T04:29:47.638Z,125
2017-05-23T04:30:57.897Z,125
2017-05-23T04:32:07.849Z,125
2017-05-23T04:33:17.800Z,130
2017-05-23T04:34:28.067Z,130
2017-05-23T04:35:38.328Z,130
2017-05-23T04:36:48.592Z,130
2017-05-23T04:37:58.222Z,130
2017-05-23T04:39:08.481Z,130
2017-05-23T04:40:18.747Z,130
2017-05-23T04:41:29.005Z,135
2017-05-23T04:42:38.957Z,135
2017-05-23T04:43:49.233Z,135
2017-05-23T04:44:59.507Z,135
2017-05-23T04:46:09.462Z,135
2017-05-23T04:47:19.731Z,135
2017-05-23T04:48:29.679Z,135
2017-05-23T04:49:39.943Z,135
2017-05-23T04:50:50.210Z,135
2017-05-23T04:52:00.470Z,145
2017-05-23T04:53:10.742Z,140
2017-05-23T04:54:20.385Z,140
2017-05-23T04:55:30.655Z,140
2017-05-23T04:56:40.923Z,140
2017-05-23T04:57:51.199Z,140
2017-05-23T04:59:01.459Z,140
2017-05-23T05:00:11.737Z,140
2017-05-23T05:01:21.998Z,140
2017-05-23T05:02:31.954Z,140
2017-05-23T05:03:41.898Z,145
2017-05-23T05:04:52.164Z,145
2017-05-23T05:06:01.795Z,150
2017-05-23T05:07:11.739Z,145
2017-05-23T05:08:22.016Z,145
2017-05-23T05:09:31.969Z,145
2017-05-23T05:10:42.239Z,145
2017-05-23T05:11:52.181Z,145
2017-05-23T05:13:02.189Z,145
2017-05-23T05:14:12.448Z,145
2017-05-23T05:15:22.391Z,150
2017-05-23T05:16:32.395Z,145
2017-05-23T05:17:42.349Z,145
2017-05-23T05:18:52.609Z,145
2017-05-23T05:20:02.560Z,145
2017-05-23T05:21:12.817Z,150
2017-05-23T05:22:23.079Z,145
2017-05-23T05:23:33.026Z,145
2017-05-23T05:24:43.286Z,145
2017-05-23T05:25:53.233Z,145
2017-05-23T05:27:03.493Z,150
2017-05-23T05:28:13.127Z,145
2017-05-23T05:29:23.074Z,145
2017-05-23T05:30:33.337Z,145
2017-05-23T05:31:43.602Z,145
2017-05-23T05:32:53.242Z,145
2017-05-23T05:34:03.505Z,150
2017-05-23T05:35:13.765Z,150
2017-05-23T05:36:23.716Z,150
2017-05-23T05:37:33.975Z,150
2017-05-23T05:38:44.240Z,150
2017-05-23T05:39:54.194Z,150
2017-05-23T05:41:04.150Z,150
2017-05-23T05:42:14.409Z,150
2017-05-23T05:43:24.356Z,150
2017-05-23T05:44:34.313Z,150
2017-05-23T05:45:44.264Z,150
2017-05-23T05:46:54.216Z,150
2017-05-23T05:48:03.850Z,150
2017-05-23T05:49:14.109Z,150
2017-05-23T05:50:23.748Z,150
2017-05-23T05:51:34.009Z,150
2017-05-23T05:52:44.273Z,155
2017-05-23T05:53:54.231Z,160
2017-05-23T05:55:04.508Z,155
2017-05-23T05:56:14.461Z,155
2017-05-23T05:57:24.408Z,155
2017-05-23T05:58:34.364Z,155
2017-05-23T05:59:44.628Z,155
2017-05-23T06:00:54.885Z,155
2017-05-23T06:02:04.833Z,155
2017-05-23T06:03:15.097Z,155
2017-05-23T06:04:25.361Z,155
2017-05-23T06:05:35.317Z,155
2017-05-23T06:06:45.584Z,155
2017-05-23T06:07:55.848Z,155
2017-05-23T06:09:06.111Z,155
2017-05-23T06:10:15.757Z,155
2017-05-23T06:11:25.387Z,160
2017-05-23T06:12:35.647Z,160
2017-05-23T06:13:45.909Z,160
2017-05-23T06:14:56.174Z,160
2017-05-23T06:16:06.441Z,160
2017-05-23T06:17:16.386Z,160
2017-05-23T06:18:26.657Z,160
2017-05-23T06:19:36.925Z,160
2017-05-23T06:20:47.186Z,160
2017-05-23T06:21:57.452Z,160
2017-05-23T06:23:07.402Z,160
2017-05-23T06:24:17.663Z,160
2017-05-23T06:25:27.618Z,160
2017-05-23T06:26:36.935Z,160
2017-05-23T06:27:47.201Z,160
2017-05-23T06:28:57.151Z,160
2017-05-23T06:30:07.106Z,165
2017-05-23T06:31:16.746Z,165
2017-05-23T06:32:27.004Z,165
2017-05-23T06:33:37.271Z,165
2017-05-23T06:34:47.226Z,165
2017-05-23T06:35:57.176Z,165
2017-05-23T06:37:07.441Z,165
2017-05-23T06:38:17.391Z,165
2017-05-23T06:39:27.339Z,165
2017-05-23T06:40:37.297Z,165
2017-05-23T06:41:47.245Z,165
2017-05-23T06:42:56.889Z,165
2017-05-23T06:44:07.148Z,165
2017-05-23T06:45:17.414Z,165
2017-05-23T06:46:27.362Z,165
2017-05-23T06:47:36.996Z,170
2017-05-23T06:48:46.961Z,170
2017-05-23T06:49:57.230Z,170
2017-05-23T06:51:07.499Z,175
2017-05-23T06:52:17.444Z,170
2017-05-23T06:53:27.398Z,170
2017-05-23T06:54:37.665Z,170
2017-05-23T06:55:47.927Z,170
2017-05-23T06:56:58.189Z,170
2017-05-23T06:58:08.463Z,170
2017-05-23T06:59:18.724Z,170
2017-05-23T07:00:28.667Z,170
2017-05-23T07:01:38.931Z,175
2017-05-23T07:02:48.880Z,170
2017-05-23T07:03:58.836Z,170
2017-05-23T07:05:08.468Z,170
2017-05-23T07:06:18.731Z,170
2017-05-23T07:07:28.994Z,170
2017-05-23T07:08:38.943Z,170
2017-05-23T07:09:48.888Z,170
2017-05-23T07:10:58.835Z,170
2017-05-23T07:12:09.104Z,170
2017-05-23T07:13:18.743Z,170
2017-05-23T07:14:29.011Z,170
2017-05-23T07:15:38.951Z,170
2017-05-23T07:16:49.213Z,170
2017-05-23T07:17:59.471Z,170
2017-05-23T07:19:09.423Z,170
2017-05-23T07:20:19.373Z,170
2017-05-23T07:21:29.322Z,170
2017-05-23T07:22:39.270Z,175
2017-05-23T07:23:49.220Z,175
2017-05-23T07:24:59.170Z,175
2017-05-23T07:26:09.431Z,175
2017-05-23T07:27:19.381Z,175
2017-05-23T07:28:29.647Z,175
2017-05-23T07:29:39.604Z,175
2017-05-23T07:30:49.242Z,175
2017-05-23T07:31:59.509Z,175
2017-05-23T07:33:09.526Z,175
2017-05-23T07:34:19.480Z,175
2017-05-23T07:35:29.431Z,175
2017-05-23T07:36:39.069Z,175
2017-05-23T07:37:49.023Z,175
2017-05-23T07:38:58.982Z,175
2017-05-23T07:40:09.250Z,175
2017-05-23T07:41:18.887Z,175
2017-05-23T07:42:29.153Z,175
2017-05-23T07:43:39.417Z,175
2017-05-23T07:44:49.372Z,180
2017-05-23T07:45:59.321Z,180
2017-05-23T07:47:09.585Z,180
2017-05-23T07:48:19.858Z,180
2017-05-23T07:49:29.813Z,180
2017-05-23T07:50:39.762Z,180
2017-05-23T07:51:49.714Z,180
2017-05-23T07:53:00.008Z,180
2017-05-23T07:54:09.647Z,180
2017-05-23T07:55:19.595Z,180
2017-05-23T07:56:29.548Z,180
2017-05-23T07:57:39.512Z,180
2017-05-23T07:58:49.779Z,180
2017-05-23T07:59:59.423Z,180
2017-05-23T08:01:09.689Z,175
2017-05-23T08:02:19.651Z,175
2017-05-23T08:03:29.610Z,175
2017-05-23T08:04:40.138Z,175
2017-05-23T08:05:50.222Z,175
2017-05-23T08:07:00.530Z,175
2017-05-23T08:08:09.541Z,110
2017-05-23T08:09:19.488Z,110
2017-05-23T08:10:29.125Z,90
2017-05-23T08:11:38.762Z,90
2017-05-23T08:12:49.035Z,95
2017-05-23T08:13:59.313Z,95
2017-05-23T08:15:09.580Z,180
2017-05-23T08:16:19.844Z,180
2017-05-23T08:17:29.790Z,180
2017-05-23T08:18:39.480Z,180
2017-05-23T08:19:49.753Z,180
2017-05-23T08:20:59.704Z,185
2017-05-23T08:22:09.649Z,185
2017-05-23T08:23:19.291Z,185
2017-05-23T08:24:29.561Z,190
2017-05-23T08:25:39.822Z,185
2017-05-23T08:26:49.144Z,185
2017-05-23T08:27:59.410Z,185
2017-05-23T08:29:09.673Z,185
2017-05-23T08:30:19.313Z,185
2017-05-23T08:31:29.578Z,185
2017-05-23T08:32:39.543Z,190
2017-05-23T08:33:49.811Z,190
2017-05-23T08:34:59.459Z,195
2017-05-23T08:36:09.720Z,195
2017-05-23T08:37:19.047Z,190
2017-05-23T08:38:28.999Z,190
2017-05-23T08:39:39.301Z,190
2017-05-23T08:40:48.938Z,190
2017-05-23T08:41:59.201Z,195
2017-05-23T08:43:08.848Z,200
2017-05-23T08:44:18.813Z,195
2017-05-23T08:45:28.765Z,195
2017-05-23T08:46:39.033Z,195
2017-05-23T08:47:49.324Z,195
2017-05-23T08:48:59.593Z,195
2017-05-23T08:50:09.856Z,195
2017-05-23T08:51:19.489Z,195
2017-05-23T08:52:29.754Z,195
2017-05-23T08:53:39.709Z,195
2017-05-23T08:54:49.032Z,195
2017-05-23T08:55:59.294Z,195
2017-05-23T08:57:09.554Z,200
2017-05-23T08:58:19.822Z,200
2017-05-23T08:59:30.091Z,200
2017-05-23T09:00:40.354Z,200
2017-05-23T09:01:50.305Z,200
2017-05-23T09:03:00.574Z,200
2017-05-23T09:04:10.530Z,200
2017-05-23T09:05:20.162Z,205
2017-05-23T09:06:30.421Z,200
2017-05-23T09:07:40.685Z,200
2017-05-23T09:08:50.952Z,200
2017-05-23T09:10:00.902Z,200
2017-05-23T09:11:11.167Z,200
2017-05-23T09:12:21.113Z,205
2017-05-23T09:13:31.375Z,205
2017-05-23T09:14:41.329Z,205
2017-05-23T09:15:51.596Z,205
2017-05-23T09:17:01.865Z,205
2017-05-23T09:18:11.822Z,205
2017-05-23T09:19:22.092Z,205
2017-05-23T09:20:32.358Z,205
2017-05-23T09:21:42.621Z,205
2017-05-23T09:22:52.574Z,205
2017-05-23T09:24:02.213Z,205
2017-05-23T09:25:12.480Z,205
2017-05-23T09:26:22.745Z,210
2017-05-23T09:27:32.383Z,210
2017-05-23T09:28:42.341Z,210
2017-05-23T09:29:52.298Z,210
2017-05-23T09:31:02.255Z,210
2017-05-23T09:32:11.894Z,210
2017-05-23T09:33:21.850Z,210
2017-05-23T09:34:32.115Z,210
2017-05-23T09:35:41.433Z,210
2017-05-23T09:36:51.076Z,210
2017-05-23T09:38:01.341Z,210
2017-05-23T09:39:11.300Z,210
2017-05-23T09:40:21.312Z,210
2017-05-23T09:41:31.577Z,215
2017-05-23T09:42:41.218Z,215
2017-05-23T09:43:51.171Z,215
2017-05-23T09:45:01.450Z,215
2017-05-23T09:46:11.726Z,215
2017-05-23T09:47:21.680Z,215
2017-05-23T09:48:31.636Z,215
2017-05-23T09:49:41.907Z,215
2017-05-23T09:50:52.170Z,215
2017-05-23T09:52:02.122Z,215
2017-05-23T09:53:11.760Z,220
2017-05-23T09:54:22.027Z,215
2017-05-23T09:55:32.294Z,220
2017-05-23T09:56:41.929Z,220
2017-05-23T09:57:52.196Z,220
2017-05-23T09:59:02.151Z,220
2017-05-23T10:00:11.797Z,220
2017-05-23T10:01:22.061Z,220
2017-05-23T10:02:31.696Z,220
2017-05-23T10:03:41.338Z,220
2017-05-23T10:04:51.605Z,225
2017-05-23T10:06:01.871Z,225
2017-05-23T10:07:11.512Z,225
2017-05-23T10:08:21.467Z,225
2017-05-23T10:09:31.731Z,225
2017-05-23T10:10:41.688Z,225
2017-05-23T10:11:51.335Z,225
2017-05-23T10:13:01.598Z,225
2017-05-23T10:14:11.559Z,225
2017-05-23T10:15:21.192Z,225
2017-05-23T10:16:31.138Z,230
2017-05-23T10:17:41.091Z,230
2017-05-23T10:18:51.045Z,230
2017-05-23T10:20:00.994Z,230
2017-05-23T10:21:11.256Z,230
2017-05-23T10:22:21.534Z,230
2017-05-23T10:23:31.168Z,230
2017-05-23T10:24:41.140Z,230
2017-05-23T10:25:51.408Z,230
2017-05-23T10:27:01.360Z,235
2017-05-23T10:28:11.348Z,235
2017-05-23T10:29:21.313Z,235
2017-05-23T10:30:31.581Z,235
2017-05-23T10:31:41.841Z,235
2017-05-23T10:32:51.793Z,235
2017-05-23T10:34:02.067Z,235
2017-05-23T10:35:12.019Z,235
2017-05-23T10:36:21.983Z,235
2017-05-23T10:37:32.251Z,235
2017-05-23T10:38:42.208Z,240
2017-05-23T10:39:52.486Z,240
2017-05-23T10:41:02.756Z,240
2017-05-23T10:42:13.022Z,240
2017-05-23T10:43:22.666Z,240
2017-05-23T10:44:32.626Z,245
2017-05-23T10:45:42.585Z,245
2017-05-23T10:46:52.852Z,245
2017-05-23T10:48:03.144Z,245
2017-05-23T10:49:12.784Z,245
2017-05-23T10:50:22.422Z,245
2017-05-23T10:51:32.689Z,245
2017-05-23T10:52:42.648Z,245
2017-05-23T10:53:52.611Z,245
2017-05-23T10:55:02.250Z,245
2017-05-23T10:56:12.205Z,245
2017-05-23T10:57:22.154Z,250
2017-05-23T10:58:31.483Z,250
2017-05-23T10:59:41.761Z,250
2017-05-23T11:00:52.031Z,250
2017-05-23T11:02:01.985Z,250
2017-05-23T11:03:12.255Z,250
2017-05-23T11:04:22.209Z,250
2017-05-23T11:05:32.165Z,255
2017-05-23T11:06:41.802Z,255
2017-05-23T11:07:52.082Z,255
2017-05-23T11:09:02.352Z,255
2017-05-23T11:10:12.306Z,255
2017-05-23T11:11:22.574Z,260
2017-05-23T11:12:32.527Z,260
2017-05-23T11:13:42.171Z,260
2017-05-23T11:14:52.448Z,260
2017-05-23T11:16:02.731Z,260
2017-05-23T11:17:12.685Z,265
2017-05-23T11:18:22.951Z,290
2017-05-23T11:19:33.222Z,290
2017-05-23T11:20:43.490Z,290
2017-05-23T11:21:53.439Z,295
2017-05-23T11:23:03.706Z,300
2017-05-23T11:24:13.983Z,300
2017-05-23T11:25:23.937Z,305
2017-05-23T11:26:33.897Z,305
2017-05-23T11:27:44.173Z,320
2017-05-23T11:28:54.452Z,655
2017-05-23T11:30:04.733Z,2195
2017-05-23T11:31:15.002Z,2905
2017-05-23T11:32:24.963Z,2990
2017-05-23T11:33:34.922Z,3120
2017-05-23T11:34:45.201Z,3215
2017-05-23T11:35:55.160Z,3320
2017-05-23T11:37:05.432Z,3560
2017-05-23T11:38:15.704Z,3335
2017-05-23T11:39:25.661Z,3150
2017-05-23T11:40:35.620Z,3395
2017-05-23T11:41:44.638Z,3460
2017-05-23T11:42:54.930Z,3410
2017-05-23T11:44:04.890Z,3110
2017-05-23T11:45:14.532Z,3330
2017-05-23T11:46:24.493Z,3155
2017-05-23T11:47:34.778Z,3000
2017-05-23T11:48:44.744Z,3345
2017-05-23T11:49:55.018Z,3450
2017-05-23T11:51:04.667Z,3245
2017-05-23T11:52:14.954Z,3120
2017-05-23T11:53:25.236Z,3270
2017-05-23T11:54:35.202Z,2815
2017-05-23T11:55:45.177Z,2805
2017-05-23T11:56:55.144Z,3225
2017-05-23T11:58:04.795Z,3250
2017-05-23T11:59:15.079Z,2940
2017-05-23T12:00:25.040Z,2815
2017-05-23T12:01:35.320Z,3095
2017-05-23T12:02:45.610Z,3180
2017-05-23T12:03:55.268Z,2970
2017-05-23T12:05:04.921Z,2835
2017-05-23T12:06:15.212Z,2970
2017-05-23T12:07:24.922Z,3080
2017-05-23T12:08:34.895Z,3125
2017-05-23T12:09:45.186Z,3245
2017-05-23T12:10:55.161Z,3030
2017-05-23T12:12:04.817Z,3035
2017-05-23T12:13:14.479Z,3135
2017-05-23T12:14:24.764Z,3240
2017-05-23T12:15:35.054Z,3115
2017-05-23T12:16:45.345Z,3450
2017-05-23T12:17:55.648Z,3295
2017-05-23T12:19:05.942Z,3210
2017-05-23T12:20:15.601Z,3100
2017-05-23T12:21:25.891Z,3095
2017-05-23T12:22:35.860Z,3045
2017-05-23T12:23:45.837Z,2970
2017-05-23T12:24:56.122Z,3015
2017-05-23T12:26:06.089Z,2895
2017-05-23T12:27:15.758Z,2865
2017-05-23T12:28:26.048Z,3075
2017-05-23T12:29:36.023Z,2945
2017-05-23T12:30:45.990Z,2815
2017-05-23T12:31:55.966Z,2795
2017-05-23T12:33:06.262Z,2730
2017-05-23T12:34:15.922Z,2590
2017-05-23T12:35:26.217Z,2450
2017-05-23T12:36:36.244Z,2525
2017-05-23T12:37:46.535Z,2485
2017-05-23T12:38:56.510Z,2425
2017-05-23T12:40:06.229Z,2345
2017-05-23T12:41:16.199Z,2265
2017-05-23T12:42:26.488Z,2245
2017-05-23T12:43:36.464Z,2300
2017-05-23T12:44:46.128Z,2160
2017-05-23T12:45:56.420Z,1930
2017-05-23T12:47:06.397Z,1910
2017-05-23T12:48:16.056Z,1945
2017-05-23T12:49:26.029Z,1945
2017-05-23T12:50:36.313Z,2000
2017-05-23T12:51:46.613Z,2270
2017-05-23T12:52:56.909Z,2750
2017-05-23T12:54:06.883Z,2545
2017-05-23T12:55:16.239Z,2825
2017-05-23T12:56:26.526Z,3420
2017-05-23T12:57:36.815Z,3025
2017-05-23T12:58:46.160Z,2800
2017-05-23T12:59:56.444Z,3145
2017-05-23T13:01:06.732Z,3565
2017-05-23T13:02:16.708Z,3475
2017-05-23T13:03:27.000Z,3130
2017-05-23T13:04:36.979Z,3220
2017-05-23T13:05:46.966Z,3545
2017-05-23T13:06:56.622Z,3715
2017-05-23T13:08:06.910Z,3805
2017-05-23T13:09:16.889Z,3605
2017-05-23T13:10:26.552Z,3530
2017-05-23T13:11:36.529Z,3490
2017-05-23T13:12:46.512Z,3530
2017-05-23T13:13:56.500Z,3840
2017-05-23T13:15:06.474Z,4055
2017-05-23T13:16:16.139Z,4035
2017-05-23T13:17:26.117Z,4080
2017-05-23T13:18:36.393Z,3880
2017-05-23T13:19:45.808Z,3630
2017-05-23T13:20:55.162Z,3515
2017-05-23T13:22:05.141Z,3690
2017-05-23T13:23:14.806Z,3620
2017-05-23T13:24:25.091Z,3450
2017-05-23T13:25:35.380Z,3170
2017-05-23T13:26:45.671Z,3120
2017-05-23T13:27:55.340Z,3300
2017-05-23T13:29:05.315Z,3335
2017-05-23T13:30:15.290Z,3465
2017-05-23T13:31:25.274Z,3320
2017-05-23T13:32:35.569Z,3490
2017-05-23T13:33:45.858Z,3455
2017-05-23T13:34:55.832Z,3405
2017-05-23T13:36:05.813Z,3290
2017-05-23T13:37:15.817Z,3560
2017-05-23T13:38:25.804Z,3605
2017-05-23T13:39:35.471Z,3705
2017-05-23T13:40:45.446Z,3395
2017-05-23T13:41:55.735Z,3140
2017-05-23T13:43:05.078Z,3365
2017-05-23T13:44:15.054Z,3515
2017-05-23T13:45:24.719Z,3480
2017-05-23T13:46:34.765Z,3290
2017-05-23T13:47:44.743Z,3620
2017-05-23T13:48:54.718Z,3600
2017-05-23T13:50:05.010Z,3550
2017-05-23T13:51:15.296Z,3675
2017-05-23T13:52:25.266Z,3410
2017-05-23T13:53:35.248Z,3455
2017-05-23T13:54:45.228Z,3330
2017-05-23T13:55:55.521Z,3470
2017-05-23T13:57:05.186Z,3510
2017-05-23T13:58:15.171Z,3355
2017-05-23T13:59:25.474Z,3395
2017-05-23T14:00:35.451Z,3305
2017-05-23T14:01:45.738Z,3085
2017-05-23T14:02:56.040Z,3365
2017-05-23T14:04:06.018Z,3325
2017-05-23T14:05:16.049Z,3235
2017-05-23T14:06:26.347Z,3225
2017-05-23T14:07:36.331Z,3180
2017-05-23T14:08:46.625Z,3290
2017-05-23T14:09:56.922Z,3305
2017-05-23T14:11:06.902Z,3375
2017-05-23T14:12:16.878Z,3340
2017-05-23T14:13:27.164Z,3280
2017-05-23T14:14:37.455Z,3160
2017-05-23T14:15:47.431Z,3270
2017-05-23T14:16:57.409Z,3515
2017-05-23T14:18:07.718Z,3345
2017-05-23T14:19:17.397Z,3360
2017-05-23T14:20:27.697Z,3110
2017-05-23T14:21:37.982Z,3120
2017-05-23T14:22:47.958Z,3195
2017-05-23T14:23:58.256Z,3245
2017-05-23T14:25:07.918Z,3245
2017-05-23T14:26:17.584Z,3090
2017-05-23T14:27:27.554Z,3145
2017-05-23T14:28:37.841Z,3210
2017-05-23T14:29:47.821Z,3240
2017-05-23T14:30:57.802Z,3325
2017-05-23T14:32:07.463Z,3305
2017-05-23T14:33:17.128Z,3340
2017-05-23T14:34:27.440Z,3020
2017-05-23T14:35:37.416Z,3145
2017-05-23T14:36:47.388Z,3180
2017-05-23T14:37:57.361Z,3125
2017-05-23T14:39:07.653Z,3045
2017-05-23T14:40:17.009Z,2935
2017-05-23T14:41:27.289Z,3185
2017-05-23T14:42:37.577Z,3190
2017-05-23T14:43:47.869Z,2945
2017-05-23T14:44:58.154Z,2825
2017-05-23T14:46:08.440Z,3020
2017-05-23T14:47:18.094Z,3160
2017-05-23T14:48:28.375Z,3200
2017-05-23T14:49:38.356Z,3055
2017-05-23T14:50:48.013Z,2980
2017-05-23T14:51:58.299Z,3040
2017-05-23T14:53:08.281Z,3140
2017-05-23T14:54:18.571Z,3055
2017-05-23T14:55:28.548Z,2985
2017-05-23T14:56:38.520Z,2975
2017-05-23T14:57:48.499Z,2985
2017-05-23T14:58:58.472Z,2895
2017-05-23T15:00:08.449Z,2965
2017-05-23T15:01:18.739Z,2830
2017-05-23T15:02:28.720Z,2745
2017-05-23T15:03:38.695Z,3070
2017-05-23T15:04:47.725Z,3145
2017-05-23T15:05:57.703Z,3000
2017-05-23T15:07:07.361Z,3010
2017-05-23T15:08:17.656Z,2940
2017-05-23T15:09:27.633Z,3000
2017-05-23T15:10:37.928Z,2905
2017-05-23T15:11:48.222Z,2935
2017-05-23T15:12:58.509Z,2985
2017-05-23T15:14:08.486Z,2910
2017-05-23T15:15:18.474Z,2955
2017-05-23T15:16:28.761Z,2950
2017-05-23T15:17:38.735Z,2855
2017-05-23T15:18:49.022Z,2850
2017-05-23T15:19:59.000Z,2930
2017-05-23T15:21:09.286Z,2860
2017-05-23T15:22:19.256Z,2705
2017-05-23T15:23:28.918Z,2845
2017-05-23T15:24:39.284Z,2815
2017-05-23T15:25:49.579Z,2845
2017-05-23T15:26:59.866Z,2900
2017-05-23T15:28:09.836Z,2825
2017-05-23T15:29:20.140Z,2790
2017-05-23T15:30:30.105Z,2860
2017-05-23T15:31:40.073Z,2810
2017-05-23T15:32:53.018Z,2735
2017-05-23T15:34:02.682Z,2700
2017-05-23T15:35:12.967Z,2715
2017-05-23T15:36:22.625Z,2775
2017-05-23T15:37:32.598Z,2685
2017-05-23T15:38:46.568Z,2610
2017-05-23T15:39:56.865Z,2625
2017-05-23T15:41:07.160Z,2630
2017-05-23T15:42:17.451Z,2525
2017-05-23T15:43:27.740Z,2590
2017-05-23T15:44:37.649Z,2600
2017-05-23T15:45:47.935Z,2625
2017-05-23T15:46:57.909Z,2695
2017-05-23T15:48:07.887Z,2490
2017-05-23T15:49:18.177Z,2485
2017-05-23T15:50:28.458Z,2345
2017-05-23T15:51:38.742Z,2515
2017-05-23T15:52:49.035Z,2250
2017-05-23T15:53:59.326Z,2210
2017-05-23T15:55:09.617Z,2470
2017-05-23T15:56:21.901Z,1940
2017-05-23T15:57:32.187Z,2170
2017-05-23T15:58:42.474Z,1990
2017-05-23T15:59:52.134Z,1220
2017-05-23T16:01:02.107Z,905
2017-05-23T16:02:12.601Z,1495
2017-05-23T16:03:22.885Z,1965
2017-05-23T16:04:32.864Z,2130
2017-05-23T16:05:43.145Z,2170
2017-05-23T16:06:53.424Z,2395
2017-05-23T16:08:03.398Z,2470